Laodcea — YKRM — position and weather

sailwx.info

Track history (hours):
 
Tides and Currents Weather Stations Pressure Air Temp Water Temp Dewpoint Dewpoint Depression Visibility Wind Speed Wind Dir Waves Ship Positions

Laodcea

Last reported at 2017-Dec-15 15:11 UTC. Time now 2017-Dec-15 20:00 UTC.
Position N 36°01' E 030°23'.

Length 138 m; draft 8 m.

Type: Cargo ship. MMSI: 46833000.

Date/timePositionNaut miles runAvg speedWind from/ knotsBaromVisibWave heightAir tempDewpointWater temp
2017-Dec-15 15:11N 36°01' E 030°23'  
2017-Dec-07 05:03N 37°05' E 026°27'011.9
2017-Dec-07 05:00N 37°06' E 026°27'611.7
2017-Dec-07 04:30N 37°10' E 026°22'611.6
2017-Dec-07 04:00N 37°14' E 026°17'611.5
2017-Dec-07 03:30N 37°18' E 026°11'611.5
2017-Dec-07 03:00N 37°22' E 026°06'611.4
2017-Dec-07 02:30N 37°26' E 026°01'611.3
2017-Dec-07 02:00N 37°30' E 025°56'611.5
2017-Dec-07 01:30N 37°36' E 025°54'911.8
2017-Dec-07 00:47N 37°44' E 025°53'611.5
2017-Dec-07 00:14N 37°50' E 025°52'411.4
2017-Dec-06 23:53N 37°54' E 025°51'511.2
2017-Dec-06 23:24N 37°60' E 025°51'  
Track history (hours):
 
Tides and Currents Weather Stations Pressure Air Temp Water Temp Dewpoint Dewpoint Depression Visibility Wind Speed Wind Dir Waves Ship Positions

Laodcea

Last reported at 2017-Dec-15 15:11 UTC. Time now 2017-Dec-15 20:00 UTC.
Position N 36°01' E 030°23'.

Length 138 m; draft 8 m.

Type: Cargo ship. MMSI: 46833000.

Date/timePositionNaut miles runAvg speedWind from/ knotsBaromVisibWave heightAir tempDewpointWater temp
2017-Dec-15 15:11N 36°01' E 030°23'  
2017-Dec-07 05:03N 37°05' E 026°27'011.9
2017-Dec-07 05:00N 37°06' E 026°27'611.7
2017-Dec-07 04:30N 37°10' E 026°22'611.6
2017-Dec-07 04:00N 37°14' E 026°17'611.5
2017-Dec-07 03:30N 37°18' E 026°11'611.5
2017-Dec-07 03:00N 37°22' E 026°06'611.4
2017-Dec-07 02:30N 37°26' E 026°01'611.3
2017-Dec-07 02:00N 37°30' E 025°56'611.5
2017-Dec-07 01:30N 37°36' E 025°54'911.8
2017-Dec-07 00:47N 37°44' E 025°53'611.5
2017-Dec-07 00:14N 37°50' E 025°52'411.4
2017-Dec-06 23:53N 37°54' E 025°51'511.2
2017-Dec-06 23:24N 37°60' E 025°51'  

Dump ship's entire track history